createdAt,value
2018-04-19T00:00:16.348Z,73.87
2018-04-19T00:00:52.350Z,73.10
2018-04-19T00:01:27.573Z,73.68
2018-04-19T00:02:02.809Z,73.49
2018-04-19T00:02:38.213Z,73.30
2018-04-19T00:03:13.410Z,73.68
2018-04-19T00:03:48.628Z,73.68
2018-04-19T00:04:23.818Z,73.00
2018-04-19T00:04:59.181Z,72.91
2018-04-19T00:05:34.777Z,73.20
2018-04-19T00:06:09.962Z,73.49
2018-04-19T00:06:45.381Z,73.20
2018-04-19T00:07:20.772Z,73.00
2018-04-19T00:07:56.078Z,73.20
2018-04-19T00:08:31.390Z,73.00
2018-04-19T00:09:06.897Z,72.81
2018-04-19T00:09:42.194Z,73.00
2018-04-19T00:10:17.470Z,72.72
2018-04-19T00:10:52.798Z,72.81
2018-04-19T00:11:28.083Z,73.00
2018-04-19T00:12:03.289Z,72.81
2018-04-19T00:12:38.511Z,72.81
2018-04-19T00:13:14.011Z,72.91
2018-04-19T00:13:49.466Z,72.91
2018-04-19T00:14:24.858Z,72.81
2018-04-19T00:15:00.475Z,72.81
2018-04-19T00:15:35.606Z,72.91
2018-04-19T00:16:10.896Z,73.00
2018-04-19T00:16:46.013Z,72.72
2018-04-19T00:17:21.794Z,72.81
2018-04-19T00:17:57.126Z,72.91
2018-04-19T00:18:33.124Z,72.91
2018-04-19T00:19:08.385Z,72.91
2018-04-19T00:19:43.906Z,73.10
2018-04-19T00:20:19.207Z,72.91
2018-04-19T00:20:54.332Z,72.91
2018-04-19T00:21:29.621Z,73.20
2018-04-19T00:22:05.448Z,73.00
2018-04-19T00:22:41.070Z,73.00
2018-04-19T00:23:16.687Z,72.91
2018-04-19T00:23:52.229Z,72.91
2018-04-19T00:24:27.434Z,72.91
2018-04-19T00:25:02.743Z,72.81
2018-04-19T00:25:39.866Z,72.91
2018-04-19T00:26:15.044Z,73.00
2018-04-19T00:26:50.150Z,73.00
2018-04-19T00:27:25.555Z,72.91
2018-04-19T00:28:01.164Z,72.91
2018-04-19T00:28:36.802Z,73.10
2018-04-19T00:29:12.431Z,72.81
2018-04-19T00:29:47.772Z,72.72
2018-04-19T00:30:23.361Z,72.72
2018-04-19T00:30:58.804Z,72.63
2018-04-19T00:31:33.901Z,72.63
2018-04-19T00:32:09.114Z,72.63
2018-04-19T00:32:44.504Z,72.63
2018-04-19T00:33:19.628Z,72.53
2018-04-19T00:33:55.034Z,73.00
2018-04-19T00:34:30.398Z,72.53
2018-04-19T00:35:05.665Z,72.72
2018-04-19T00:35:41.460Z,73.00
2018-04-19T00:36:17.071Z,73.00
2018-04-19T00:36:52.498Z,73.00
2018-04-19T00:37:27.609Z,72.91
2018-04-19T00:38:02.927Z,72.91
2018-04-19T00:38:38.330Z,72.78
2018-04-19T00:39:13.935Z,72.81
2018-04-19T00:39:49.457Z,73.10
2018-04-19T00:40:24.788Z,72.72
2018-04-19T00:40:59.908Z,72.78
2018-04-19T00:41:35.104Z,72.68
2018-04-19T00:42:10.214Z,72.97
2018-04-19T00:42:45.612Z,72.78
2018-04-19T00:43:20.728Z,72.88
2018-04-19T00:43:56.158Z,72.97
2018-04-19T00:44:31.552Z,72.78
2018-04-19T00:45:06.691Z,72.78
2018-04-19T00:45:42.611Z,72.78
2018-04-19T00:46:18.012Z,72.88
2018-04-19T00:46:53.105Z,72.88
2018-04-19T00:47:28.419Z,73.16
2018-04-19T00:48:05.249Z,72.97
2018-04-19T00:48:40.946Z,72.97
2018-04-19T00:49:16.268Z,72.97
2018-04-19T00:49:51.459Z,73.35
2018-04-19T00:50:27.002Z,72.97
2018-04-19T00:51:02.433Z,72.49
2018-04-19T00:51:37.725Z,72.97
2018-04-19T00:52:12.828Z,73.26
2018-04-19T00:52:47.934Z,72.88
2018-04-19T00:53:23.287Z,73.26
2018-04-19T00:53:58.796Z,73.07
2018-04-19T00:54:34.219Z,73.26
2018-04-19T00:55:09.324Z,73.74
2018-04-19T00:55:45.723Z,72.88
2018-04-19T00:56:21.049Z,73.55
2018-04-19T00:56:56.558Z,73.35
2018-04-19T00:57:31.951Z,73.26
2018-04-19T00:58:07.384Z,72.97
2018-04-19T00:58:43.171Z,73.55
2018-04-19T00:59:18.571Z,73.65
2018-04-19T00:59:53.878Z,73.45
2018-04-19T01:00:29.066Z,73.26
2018-04-19T01:01:04.482Z,73.16
2018-04-19T01:01:40.456Z,73.16
2018-04-19T01:02:16.073Z,72.97
2018-04-19T01:02:51.381Z,72.88
2018-04-19T01:03:26.791Z,73.16
2018-04-19T01:04:02.186Z,72.59
2018-04-19T01:04:37.527Z,72.88
2018-04-19T01:05:12.846Z,72.97
2018-04-19T01:05:48.347Z,72.97
2018-04-19T01:06:23.711Z,72.78
2018-04-19T01:06:59.072Z,73.07
2018-04-19T01:07:34.506Z,72.88
2018-04-19T01:08:09.917Z,72.88
2018-04-19T01:08:45.304Z,72.78
2018-04-19T01:09:20.629Z,72.88
2018-04-19T01:09:55.937Z,72.78
2018-04-19T01:10:31.117Z,72.78
2018-04-19T01:11:06.722Z,72.97
2018-04-19T01:11:41.932Z,72.78
2018-04-19T01:12:17.328Z,72.78
2018-04-19T01:12:52.615Z,72.97
2018-04-19T01:13:27.912Z,72.68
2018-04-19T01:14:03.343Z,72.68
2018-04-19T01:14:39.028Z,72.88
2018-04-19T01:15:14.625Z,72.68
2018-04-19T01:15:50.211Z,72.68
2018-04-19T01:16:25.547Z,72.78
2018-04-19T01:17:00.805Z,72.97
2018-04-19T01:17:36.196Z,72.74
2018-04-19T01:18:11.618Z,72.94
2018-04-19T01:18:47.428Z,72.94
2018-04-19T01:19:22.736Z,72.84
2018-04-19T01:19:58.137Z,72.74
2018-04-19T01:20:33.513Z,72.59
2018-04-19T01:21:08.948Z,72.45
2018-04-19T01:21:44.635Z,72.94
2018-04-19T01:22:20.179Z,72.74
2018-04-19T01:22:55.416Z,72.88
2018-04-19T01:23:30.905Z,72.74
2018-04-19T01:24:06.521Z,72.84
2018-04-19T01:24:42.015Z,72.84
2018-04-19T01:25:17.233Z,72.74
2018-04-19T01:25:52.563Z,72.64
2018-04-19T01:26:27.745Z,72.64
2018-04-19T01:27:02.950Z,72.84
2018-04-19T01:27:38.449Z,72.64
2018-04-19T01:28:13.684Z,72.74
2018-04-19T01:28:48.777Z,72.27
2018-04-19T01:29:24.291Z,72.45
2018-04-19T01:29:59.500Z,72.74
2018-04-19T01:30:34.781Z,72.84
2018-04-19T01:31:10.095Z,72.74
2018-04-19T01:31:45.577Z,72.84
2018-04-19T01:32:20.771Z,72.64
2018-04-19T01:32:56.225Z,72.55
2018-04-19T01:33:31.594Z,72.55
2018-04-19T01:34:06.996Z,72.55
2018-04-19T01:34:42.478Z,72.55
2018-04-19T01:35:17.780Z,72.45
2018-04-19T01:35:53.386Z,72.27
2018-04-19T01:36:28.716Z,72.55
2018-04-19T01:37:03.816Z,72.55
2018-04-19T01:37:38.995Z,72.36
2018-04-19T01:38:14.334Z,72.94
2018-04-19T01:38:49.812Z,72.45
2018-04-19T01:39:25.401Z,72.17
2018-04-19T01:40:00.556Z,72.55
2018-04-19T01:40:36.083Z,72.27
2018-04-19T01:41:11.310Z,72.45
2018-04-19T01:41:48.117Z,72.45
2018-04-19T01:42:23.528Z,72.17
2018-04-19T01:42:59.249Z,72.64
2018-04-19T01:43:34.503Z,72.45
2018-04-19T01:44:09.639Z,72.55
2018-04-19T01:44:44.920Z,72.74
2018-04-19T01:45:20.458Z,72.55
2018-04-19T01:45:55.648Z,72.55
2018-04-19T01:46:31.074Z,72.45
2018-04-19T01:47:06.388Z,72.45
2018-04-19T01:47:41.779Z,72.45
2018-04-19T01:48:17.039Z,72.23
2018-04-19T01:48:52.320Z,72.64
2018-04-19T01:49:27.861Z,72.61
2018-04-19T01:50:03.234Z,72.55
2018-04-19T01:50:39.089Z,72.55
2018-04-19T01:51:14.410Z,72.36
2018-04-19T01:51:50.406Z,72.71
2018-04-19T01:52:25.849Z,72.64
2018-04-19T01:53:01.756Z,72.71
2018-04-19T01:53:37.212Z,73.38
2018-04-19T01:54:12.653Z,73.28
2018-04-19T01:54:48.032Z,72.80
2018-04-19T01:55:23.753Z,73.38
2018-04-19T01:55:59.242Z,73.19
2018-04-19T01:56:34.445Z,73.28
2018-04-19T01:57:09.868Z,72.90
2018-04-19T01:57:45.143Z,73.57
2018-04-19T01:58:21.003Z,72.90
2018-04-19T01:58:56.532Z,73.28
2018-04-19T01:59:32.304Z,72.71
2018-04-19T02:00:07.611Z,72.99
2018-04-19T02:00:43.533Z,72.80
2018-04-19T02:01:18.951Z,73.28
2018-04-19T02:01:53.950Z,73.47
2018-04-19T02:02:29.247Z,73.95
2018-04-19T02:03:04.460Z,73.76
2018-04-19T02:03:39.467Z,73.28
2018-04-19T02:04:14.797Z,72.90
2018-04-19T02:04:50.003Z,72.90
2018-04-19T02:05:25.105Z,72.99
2018-04-19T02:06:00.488Z,72.90
2018-04-19T02:06:36.208Z,73.19
2018-04-19T02:07:11.535Z,74.33
2018-04-19T02:07:46.896Z,73.76
2018-04-19T02:08:22.324Z,74.24
2018-04-19T02:08:57.420Z,73.95
2018-04-19T02:09:32.874Z,73.76
2018-04-19T02:10:07.974Z,73.38
2018-04-19T02:10:43.448Z,73.76
2018-04-19T02:11:18.662Z,73.09
2018-04-19T02:11:54.168Z,73.47
2018-04-19T02:12:29.398Z,73.57
2018-04-19T02:13:04.707Z,74.24
2018-04-19T02:13:40.033Z,74.11
2018-04-19T02:14:15.578Z,74.01
2018-04-19T02:14:51.231Z,73.24
2018-04-19T02:15:26.545Z,73.72
2018-04-19T02:16:01.826Z,73.72
2018-04-19T02:16:37.144Z,74.43
2018-04-19T02:17:12.475Z,74.87
2018-04-19T02:17:47.895Z,74.20
2018-04-19T02:18:23.110Z,73.72
2018-04-19T02:18:58.606Z,73.91
2018-04-19T02:19:34.012Z,74.49
2018-04-19T02:20:10.071Z,74.30
2018-04-19T02:20:45.366Z,74.68
2018-04-19T02:21:20.775Z,74.30
2018-04-19T02:21:56.290Z,73.72
2018-04-19T02:22:31.888Z,73.24
2018-04-19T02:23:07.416Z,73.44
2018-04-19T02:23:42.732Z,73.54
2018-04-19T02:24:18.259Z,74.11
2018-04-19T02:24:53.567Z,73.91
2018-04-19T02:25:28.896Z,74.20
2018-04-19T02:26:05.209Z,73.72
2018-04-19T02:26:40.366Z,74.40
2018-04-19T02:27:15.783Z,74.20
2018-04-19T02:27:51.217Z,75.07
2018-04-19T02:28:26.510Z,74.87
2018-04-19T02:29:01.705Z,74.68
2018-04-19T02:29:37.145Z,75.16
2018-04-19T02:30:12.673Z,74.77
2018-04-19T02:30:48.310Z,74.11
2018-04-19T02:31:24.336Z,74.40
2018-04-19T02:31:59.732Z,74.40
2018-04-19T02:32:35.151Z,74.11
2018-04-19T02:33:11.056Z,74.01
2018-04-19T02:33:46.965Z,74.87
2018-04-19T02:34:22.291Z,74.58
2018-04-19T02:34:57.708Z,74.30
2018-04-19T02:35:33.269Z,75.07
2018-04-19T02:36:08.890Z,74.49
2018-04-19T02:36:44.930Z,74.01
2018-04-19T02:37:20.819Z,73.91
2018-04-19T02:37:56.439Z,73.82
2018-04-19T02:38:31.756Z,73.24
2018-04-19T02:39:06.969Z,73.54
2018-04-19T02:39:43.276Z,73.54
2018-04-19T02:40:18.254Z,73.05
2018-04-19T02:40:53.505Z,73.24
2018-04-19T02:41:29.031Z,73.54
2018-04-19T02:42:04.399Z,73.34
2018-04-19T02:42:39.719Z,73.15
2018-04-19T02:43:15.107Z,73.44
2018-04-19T02:43:50.513Z,73.24
2018-04-19T02:44:25.932Z,73.05
2018-04-19T02:45:01.228Z,73.24
2018-04-19T02:45:36.652Z,73.63
2018-04-19T02:46:11.874Z,73.44
2018-04-19T02:46:47.147Z,73.54
2018-04-19T02:47:22.320Z,73.05
2018-04-19T02:47:57.530Z,73.24
2018-04-19T02:48:32.931Z,73.54
2018-04-19T02:49:08.022Z,73.54
2018-04-19T02:49:43.468Z,73.34
2018-04-19T02:50:18.885Z,73.54
2018-04-19T02:50:55.021Z,73.54
2018-04-19T02:51:30.469Z,73.24
2018-04-19T02:52:05.658Z,73.82
2018-04-19T02:52:41.100Z,73.82
2018-04-19T02:53:16.400Z,74.11
2018-04-19T02:53:51.719Z,73.82
2018-04-19T02:54:27.467Z,73.24
2018-04-19T02:55:02.885Z,73.24
2018-04-19T02:55:38.292Z,73.54
2018-04-19T02:56:13.681Z,73.24
2018-04-19T02:56:49.207Z,73.44
2018-04-19T02:57:24.739Z,73.24
2018-04-19T02:58:00.548Z,73.24
2018-04-19T02:58:35.992Z,73.54
2018-04-19T02:59:11.298Z,73.63
2018-04-19T02:59:46.736Z,73.72
2018-04-19T03:00:22.227Z,73.63
2018-04-19T03:00:57.638Z,73.72
2018-04-19T03:01:32.941Z,73.82
2018-04-19T03:02:07.985Z,73.72
2018-04-19T03:02:44.900Z,73.72
2018-04-19T03:03:20.216Z,73.72
2018-04-19T03:03:55.434Z,73.34
2018-04-19T03:04:30.830Z,73.91
2018-04-19T03:05:06.317Z,74.20
2018-04-19T03:05:42.533Z,73.82
2018-04-19T03:06:17.718Z,74.11
2018-04-19T03:06:53.971Z,73.91
2018-04-19T03:07:29.820Z,74.01
2018-04-19T03:08:05.209Z,73.82
2018-04-19T03:08:40.860Z,73.91
2018-04-19T03:09:16.251Z,73.63
2018-04-19T03:09:53.387Z,73.72
2018-04-19T03:10:28.559Z,73.82
2018-04-19T03:11:03.883Z,73.72
2018-04-19T03:11:39.477Z,73.69
2018-04-19T03:12:15.024Z,73.63
2018-04-19T03:12:51.216Z,73.59
2018-04-19T03:13:26.536Z,73.82
2018-04-19T03:14:01.783Z,73.69
2018-04-19T03:14:38.857Z,73.50
2018-04-19T03:15:15.585Z,73.88
2018-04-19T03:15:50.773Z,74.07
2018-04-19T03:16:26.076Z,73.88
2018-04-19T03:17:01.178Z,74.26
2018-04-19T03:17:36.348Z,73.97
2018-04-19T03:18:11.770Z,73.97
2018-04-19T03:18:46.974Z,73.59
2018-04-19T03:19:22.915Z,74.16
2018-04-19T03:19:58.136Z,74.07
2018-04-19T03:20:33.543Z,74.07
2018-04-19T03:21:09.359Z,73.69
2018-04-19T03:21:44.542Z,73.97
2018-04-19T03:22:19.978Z,73.59
2018-04-19T03:22:55.588Z,73.88
2018-04-19T03:23:30.910Z,73.88
2018-04-19T03:24:06.459Z,74.26
2018-04-19T03:24:41.746Z,74.07
2018-04-19T03:25:16.963Z,73.88
2018-04-19T03:25:53.667Z,74.55
2018-04-19T03:26:29.013Z,74.45
2018-04-19T03:27:04.942Z,75.02
2018-04-19T03:27:42.341Z,74.74
2018-04-19T03:28:17.716Z,74.93
2018-04-19T03:28:52.917Z,74.74
2018-04-19T03:29:28.550Z,74.84
2018-04-19T03:30:03.765Z,74.93
2018-04-19T03:30:40.965Z,74.93
2018-04-19T03:31:16.878Z,75.02
2018-04-19T03:31:52.269Z,74.93
2018-04-19T03:32:27.923Z,75.22
2018-04-19T03:33:03.334Z,75.12
2018-04-19T03:33:38.747Z,75.02
2018-04-19T03:34:14.058Z,74.84
2018-04-19T03:34:49.237Z,74.84
2018-04-19T03:35:24.571Z,74.93
2018-04-19T03:35:59.735Z,75.02
2018-04-19T03:36:35.763Z,74.93
2018-04-19T03:37:11.286Z,74.84
2018-04-19T03:37:46.789Z,74.93
2018-04-19T03:38:22.119Z,75.12
2018-04-19T03:38:57.702Z,74.93
2018-04-19T03:39:33.425Z,74.84
2018-04-19T03:40:08.755Z,74.65
2018-04-19T03:40:44.250Z,74.84
2018-04-19T03:41:19.663Z,74.93
2018-04-19T03:41:55.150Z,74.84
2018-04-19T03:42:30.446Z,74.74
2018-04-19T03:43:05.657Z,74.93
2018-04-19T03:43:41.130Z,75.41
2018-04-19T03:44:16.873Z,75.51
2018-04-19T03:44:52.185Z,75.22
2018-04-19T03:45:27.824Z,75.31
2018-04-19T03:46:03.450Z,75.09
2018-04-19T03:46:38.864Z,75.41
2018-04-19T03:47:14.159Z,75.51
2018-04-19T03:47:49.461Z,75.31
2018-04-19T03:48:24.888Z,75.51
2018-04-19T03:49:00.211Z,75.41
2018-04-19T03:49:35.405Z,75.47
2018-04-19T03:50:10.721Z,75.47
2018-04-19T03:50:47.901Z,75.70
2018-04-19T03:51:23.310Z,76.14
2018-04-19T03:51:58.690Z,75.47
2018-04-19T03:52:34.225Z,75.56
2018-04-19T03:53:09.626Z,75.37
2018-04-19T03:53:45.004Z,75.56
2018-04-19T03:54:20.742Z,75.95
2018-04-19T03:54:56.130Z,75.56
2018-04-19T03:55:31.853Z,75.37
2018-04-19T03:56:06.882Z,75.56
2018-04-19T03:56:42.198Z,75.27
2018-04-19T03:57:17.526Z,75.37
2018-04-19T03:57:52.815Z,75.37
2018-04-19T03:58:28.318Z,74.90
2018-04-19T03:59:03.452Z,74.70
2018-04-19T03:59:38.891Z,74.70
2018-04-19T04:00:14.099Z,75.18
2018-04-19T04:00:49.687Z,74.80
2018-04-19T04:01:25.100Z,74.80
2018-04-19T04:02:00.717Z,74.90
2018-04-19T04:02:36.843Z,74.32
2018-04-19T04:03:12.452Z,74.99
2018-04-19T04:03:47.853Z,74.80
2018-04-19T04:04:23.193Z,74.70
2018-04-19T04:04:58.501Z,74.70
2018-04-19T04:05:34.041Z,74.80
2018-04-19T04:06:09.362Z,74.90
2018-04-19T04:06:44.699Z,74.70
2018-04-19T04:07:20.181Z,74.80
2018-04-19T04:07:55.697Z,74.70
2018-04-19T04:08:30.919Z,74.13
2018-04-19T04:09:06.326Z,73.75
2018-04-19T04:09:42.403Z,74.51
2018-04-19T04:10:17.807Z,74.22
2018-04-19T04:10:53.324Z,73.94
2018-04-19T04:11:28.672Z,73.75
2018-04-19T04:12:03.751Z,73.94
2018-04-19T04:12:40.871Z,73.75
2018-04-19T04:13:16.284Z,74.41
2018-04-19T04:13:51.691Z,73.75
2018-04-19T04:14:27.268Z,73.84
2018-04-19T04:15:02.699Z,73.65
2018-04-19T04:15:39.409Z,73.27
2018-04-19T04:16:14.618Z,73.65
2018-04-19T04:16:49.937Z,73.65
2018-04-19T04:17:25.257Z,73.46
2018-04-19T04:18:00.562Z,73.84
2018-04-19T04:18:35.874Z,73.75
2018-04-19T04:19:11.184Z,73.65
2018-04-19T04:19:46.512Z,73.46
2018-04-19T04:20:21.955Z,73.36
2018-04-19T04:20:59.677Z,73.65
2018-04-19T04:21:35.298Z,73.84
2018-04-19T04:22:10.823Z,74.04
2018-04-19T04:22:46.276Z,73.36
2018-04-19T04:23:21.463Z,73.65
2018-04-19T04:23:57.077Z,73.46
2018-04-19T04:24:32.317Z,73.84
2018-04-19T04:25:07.843Z,73.36
2018-04-19T04:25:43.045Z,73.84
2018-04-19T04:26:18.459Z,73.46
2018-04-19T04:26:53.781Z,73.55
2018-04-19T04:27:29.203Z,73.84
2018-04-19T04:28:04.612Z,74.04
2018-04-19T04:28:40.036Z,73.55
2018-04-19T04:29:15.540Z,74.04
2018-04-19T04:29:50.974Z,73.94
2018-04-19T04:30:26.521Z,74.04
2018-04-19T04:31:03.734Z,74.04
2018-04-19T04:31:39.657Z,73.75
2018-04-19T04:32:15.066Z,74.22
2018-04-19T04:32:50.268Z,74.04
2018-04-19T04:33:25.782Z,73.84
2018-04-19T04:34:01.274Z,73.84
2018-04-19T04:34:36.590Z,73.94
2018-04-19T04:35:11.950Z,74.41
2018-04-19T04:35:48.945Z,73.80
2018-04-19T04:36:24.336Z,73.90
2018-04-19T04:36:59.435Z,73.80
2018-04-19T04:37:34.753Z,74.04
2018-04-19T04:38:10.132Z,73.84
2018-04-19T04:38:45.972Z,73.99
2018-04-19T04:39:21.366Z,73.80
2018-04-19T04:39:56.789Z,73.80
2018-04-19T04:40:32.300Z,73.99
2018-04-19T04:41:07.751Z,73.99
2018-04-19T04:41:43.056Z,73.80
2018-04-19T04:42:18.552Z,73.71
2018-04-19T04:42:53.771Z,73.80
2018-04-19T04:43:28.890Z,73.80
2018-04-19T04:44:04.086Z,73.99
2018-04-19T04:44:39.704Z,73.99
2018-04-19T04:45:15.086Z,73.80
2018-04-19T04:45:50.611Z,74.28
2018-04-19T04:46:25.849Z,73.61
2018-04-19T04:47:01.339Z,73.80
2018-04-19T04:47:36.753Z,73.99
2018-04-19T04:48:12.152Z,73.80
2018-04-19T04:48:47.464Z,73.99
2018-04-19T04:49:22.878Z,73.52
2018-04-19T04:49:58.180Z,73.61
2018-04-19T04:50:33.695Z,73.61
2018-04-19T04:51:12.318Z,73.61
2018-04-19T04:51:47.633Z,73.80
2018-04-19T04:52:23.070Z,73.61
2018-04-19T04:52:58.401Z,73.80
2018-04-19T04:53:33.741Z,73.71
2018-04-19T04:54:09.340Z,73.61
2018-04-19T04:54:47.148Z,73.52
2018-04-19T04:55:22.348Z,73.52
2018-04-19T04:55:57.549Z,73.52
2018-04-19T04:56:32.792Z,73.90
2018-04-19T04:57:08.187Z,73.80
2018-04-19T04:57:44.917Z,73.71
2018-04-19T04:58:20.111Z,73.43
2018-04-19T04:58:55.751Z,73.52
2018-04-19T04:59:31.247Z,73.33
2018-04-19T05:00:06.723Z,73.71
2018-04-19T05:00:44.993Z,73.43
2018-04-19T05:01:20.283Z,73.52
2018-04-19T05:01:55.726Z,73.90
2018-04-19T05:02:31.047Z,72.98
2018-04-19T05:03:06.489Z,73.14
2018-04-19T05:03:41.699Z,72.94
2018-04-19T05:04:17.009Z,73.80
2018-04-19T05:04:52.323Z,73.08
2018-04-19T05:05:28.001Z,73.90
2018-04-19T05:06:03.205Z,73.65
2018-04-19T05:06:40.295Z,73.14
2018-04-19T05:07:15.695Z,73.14
2018-04-19T05:07:51.240Z,73.84
2018-04-19T05:08:26.611Z,73.75
2018-04-19T05:09:01.720Z,73.84
2018-04-19T05:09:36.855Z,73.36
2018-04-19T05:10:12.259Z,73.36
2018-04-19T05:10:48.771Z,73.36
2018-04-19T05:11:24.341Z,73.84
2018-04-19T05:12:00.545Z,73.27
2018-04-19T05:12:35.684Z,73.27
2018-04-19T05:13:10.715Z,73.36
2018-04-19T05:13:46.139Z,73.84
2018-04-19T05:14:21.617Z,73.84
2018-04-19T05:14:56.859Z,73.65
2018-04-19T05:15:32.349Z,73.08
2018-04-19T05:16:07.854Z,73.65
2018-04-19T05:16:43.282Z,73.36
2018-04-19T05:17:19.029Z,73.08
2018-04-19T05:17:54.536Z,73.27
2018-04-19T05:18:29.986Z,73.46
2018-04-19T05:19:05.186Z,73.17
2018-04-19T05:19:40.585Z,73.17
2018-04-19T05:20:16.053Z,73.27
2018-04-19T05:20:56.437Z,73.27
2018-04-19T05:21:31.956Z,72.98
2018-04-19T05:22:07.461Z,73.17
2018-04-19T05:22:43.258Z,73.46
2018-04-19T05:23:18.713Z,73.36
2018-04-19T05:23:54.341Z,73.36
2018-04-19T05:24:29.780Z,73.36
2018-04-19T05:25:06.134Z,73.46
2018-04-19T05:25:41.459Z,73.08
2018-04-19T05:26:16.893Z,72.88
2018-04-19T05:26:52.271Z,72.83
2018-04-19T05:27:27.661Z,72.83
2018-04-19T05:28:03.010Z,73.11
2018-04-19T05:28:38.249Z,73.02
2018-04-19T05:29:13.572Z,73.02
2018-04-19T05:29:48.781Z,73.11
2018-04-19T05:30:23.879Z,73.50
2018-04-19T05:31:02.002Z,73.02
2018-04-19T05:31:37.208Z,73.30
2018-04-19T05:32:12.433Z,73.21
2018-04-19T05:32:47.861Z,72.83
2018-04-19T05:33:23.385Z,72.44
2018-04-19T05:33:58.729Z,72.83
2018-04-19T05:34:34.029Z,72.92
2018-04-19T05:35:09.455Z,72.54
2018-04-19T05:35:47.770Z,72.54
2018-04-19T05:36:23.349Z,72.63
2018-04-19T05:36:58.783Z,72.44
2018-04-19T05:37:34.111Z,72.83
2018-04-19T05:38:09.567Z,72.54
2018-04-19T05:38:44.875Z,72.63
2018-04-19T05:39:20.089Z,73.02
2018-04-19T05:39:55.320Z,72.54
2018-04-19T05:40:30.600Z,72.67
2018-04-19T05:41:06.727Z,72.77
2018-04-19T05:41:42.240Z,72.96
2018-04-19T05:42:17.651Z,72.38
2018-04-19T05:42:53.092Z,72.38
2018-04-19T05:43:28.301Z,72.48
2018-04-19T05:44:06.720Z,72.38
2018-04-19T05:44:42.784Z,72.38
2018-04-19T05:45:17.905Z,72.19
2018-04-19T05:45:53.643Z,72.19
2018-04-19T05:46:28.932Z,72.00
2018-04-19T05:47:04.142Z,72.23
2018-04-19T05:47:39.537Z,72.23
2018-04-19T05:48:14.875Z,71.56
2018-04-19T05:48:50.485Z,72.03
2018-04-19T05:49:25.557Z,71.94
2018-04-19T05:50:00.895Z,72.13
2018-04-19T05:50:36.485Z,72.13
2018-04-19T05:51:11.813Z,72.42
2018-04-19T05:51:46.947Z,71.94
2018-04-19T05:52:22.262Z,71.75
2018-04-19T05:52:57.753Z,71.84
2018-04-19T05:53:33.161Z,71.94
2018-04-19T05:54:08.685Z,71.50
2018-04-19T05:54:44.322Z,71.78
2018-04-19T05:55:20.017Z,71.50
2018-04-19T05:55:55.440Z,70.92
2018-04-19T05:56:30.847Z,71.88
2018-04-19T05:57:06.168Z,71.21
2018-04-19T05:57:41.527Z,71.31
2018-04-19T05:58:16.786Z,71.31
2018-04-19T05:58:52.170Z,71.40
2018-04-19T05:59:27.295Z,71.40
2018-04-19T06:00:02.839Z,71.21
2018-04-19T06:00:38.633Z,71.40
2018-04-19T06:01:15.843Z,71.34
2018-04-19T06:01:53.274Z,70.86
2018-04-19T06:02:28.611Z,70.86
2018-04-19T06:03:04.106Z,70.48
2018-04-19T06:03:39.942Z,70.19
2018-04-19T06:04:15.292Z,70.19
2018-04-19T06:04:50.585Z,70.29
2018-04-19T06:05:26.233Z,70.00
2018-04-19T06:06:02.167Z,70.19
2018-04-19T06:06:37.487Z,69.65
2018-04-19T06:07:13.109Z,69.84
2018-04-19T06:07:48.702Z,69.56
2018-04-19T06:08:24.331Z,69.74
2018-04-19T06:08:59.663Z,69.36
2018-04-19T06:09:35.165Z,69.56
2018-04-19T06:10:10.520Z,69.49
2018-04-19T06:10:48.618Z,69.01
2018-04-19T06:11:24.045Z,68.82
2018-04-19T06:12:02.565Z,68.63
2018-04-19T06:12:37.848Z,68.91
2018-04-19T06:13:13.806Z,68.91
2018-04-19T06:13:49.033Z,68.73
2018-04-19T06:14:24.770Z,68.73
2018-04-19T06:15:00.206Z,68.73
2018-04-19T06:15:35.725Z,68.34
2018-04-19T06:16:11.015Z,67.99
2018-04-19T06:16:46.343Z,68.18
2018-04-19T06:17:22.668Z,67.90
2018-04-19T06:18:00.295Z,67.99
2018-04-19T06:18:35.715Z,67.61
2018-04-19T06:19:11.142Z,67.45
2018-04-19T06:19:46.846Z,68.70
2018-04-19T06:20:21.959Z,68.21
2018-04-19T06:20:57.310Z,67.64
2018-04-19T06:21:32.842Z,67.07
2018-04-19T06:22:08.168Z,66.77
2018-04-19T06:22:43.656Z,66.58
2018-04-19T06:23:19.066Z,66.10
2018-04-19T06:23:54.349Z,66.23
2018-04-19T06:24:29.844Z,65.46
2018-04-19T06:25:05.086Z,65.66
2018-04-19T06:25:41.695Z,65.17
2018-04-19T06:26:21.457Z,64.82
2018-04-19T06:26:57.105Z,65.01
2018-04-19T06:27:33.008Z,64.15
2018-04-19T06:28:10.533Z,64.02
2018-04-19T06:28:45.936Z,62.99
2018-04-19T06:29:21.179Z,61.87
2018-04-19T06:29:59.724Z,60.74
2018-04-19T06:30:34.917Z,60.03
2018-04-19T06:31:13.033Z,57.96
2018-04-19T06:31:48.638Z,56.22
2018-04-19T06:32:24.060Z,56.28
2018-04-19T06:33:00.092Z,55.24
2018-04-19T06:33:37.871Z,52.95
2018-04-19T06:34:13.074Z,52.29
2018-04-19T06:34:50.489Z,50.94
2018-04-19T06:35:26.254Z,50.52
2018-04-19T06:36:01.741Z,51.04
2018-04-19T06:36:36.888Z,50.45
2018-04-19T06:37:12.256Z,50.55
2018-04-19T06:37:47.568Z,50.29
2018-04-19T06:38:23.016Z,49.15
2018-04-19T06:38:58.443Z,48.66
2018-04-19T06:39:33.825Z,48.39
2018-04-19T06:40:09.142Z,47.23
2018-04-19T06:40:44.945Z,47.69
2018-04-19T06:41:20.485Z,48.52
2018-04-19T06:41:55.736Z,47.45
2018-04-19T06:42:31.484Z,46.41
2018-04-19T06:43:06.703Z,45.75
2018-04-19T06:43:47.397Z,45.48
2018-04-19T06:44:23.607Z,44.75
2018-04-19T06:44:58.822Z,44.87
2018-04-19T06:45:34.345Z,44.51
2018-04-19T06:46:10.457Z,43.92
2018-04-19T06:46:45.882Z,42.66
2018-04-19T06:47:21.210Z,43.82
2018-04-19T06:48:00.389Z,44.09
2018-04-19T06:48:35.430Z,44.09
2018-04-19T06:49:11.419Z,43.63
2018-04-19T06:49:46.835Z,44.31
2018-04-19T06:50:22.172Z,45.14
2018-04-19T06:50:59.559Z,43.33
2018-04-19T06:51:34.881Z,41.38
2018-04-19T06:52:10.183Z,41.19
2018-04-19T06:52:48.431Z,41.09
2018-04-19T06:53:23.872Z,40.97
2018-04-19T06:56:00.739Z,40.16
2018-04-19T06:56:36.313Z,39.90
2018-04-19T06:57:12.277Z,39.59
2018-04-19T06:57:49.418Z,39.49
2018-04-19T06:58:24.905Z,40.97
2018-04-19T06:59:01.378Z,39.70
2018-04-19T06:59:36.787Z,38.94
2018-04-19T07:00:11.955Z,38.48
2018-04-19T07:00:50.980Z,37.43
2018-04-19T07:01:26.204Z,36.65
2018-04-19T07:02:01.474Z,36.28
2018-04-19T07:02:36.577Z,35.68
2018-04-19T07:03:11.873Z,36.88
2018-04-19T07:03:48.895Z,36.10
2018-04-19T07:04:23.895Z,35.61
2018-04-19T07:05:00.779Z,34.72
2018-04-19T07:05:37.077Z,35.13
2018-04-19T07:06:12.348Z,35.11
2018-04-19T07:06:47.670Z,36.39
2018-04-19T07:07:23.009Z,36.51
2018-04-19T07:08:00.213Z,35.84
2018-04-19T07:08:35.563Z,36.60
2018-04-19T07:09:10.839Z,36.88
2018-04-19T07:09:46.549Z,37.25
2018-04-19T07:10:24.438Z,37.65
2018-04-19T07:10:59.843Z,37.55
2018-04-19T07:11:35.490Z,38.24
2018-04-19T07:12:10.597Z,38.92
2018-04-19T07:12:47.498Z,38.34
2018-04-19T07:13:23.412Z,37.46
2018-04-19T07:14:02.657Z,38.73
2018-04-19T07:14:38.079Z,38.30
2018-04-19T07:15:13.386Z,39.55
2018-04-19T07:15:52.717Z,40.83
2018-04-19T07:16:28.053Z,40.06
2018-04-19T07:17:03.536Z,40.37
2018-04-19T07:17:38.757Z,40.64
2018-04-19T07:18:14.563Z,40.45
2018-04-19T07:18:50.048Z,40.25
2018-04-19T07:19:25.297Z,39.75
2018-04-19T07:20:03.275Z,40.60
2018-04-19T07:20:39.074Z,41.26
2018-04-19T07:21:14.369Z,42.24
2018-04-19T07:23:54.105Z,44.26
2018-04-19T07:24:31.449Z,43.26
2018-04-19T07:25:06.725Z,42.90
2018-04-19T07:25:41.931Z,44.06
2018-04-19T07:26:17.248Z,45.84
2018-04-19T07:26:52.946Z,45.15
2018-04-19T07:27:31.163Z,44.40
2018-04-19T07:28:08.794Z,43.71
2018-04-19T07:28:43.875Z,42.53
2018-04-19T07:29:21.076Z,43.91
2018-04-19T07:29:59.600Z,42.91
2018-04-19T07:30:34.898Z,43.50
2018-04-19T07:31:10.277Z,43.33
2018-04-19T07:31:46.070Z,42.45
2018-04-19T07:32:21.402Z,43.04
2018-04-19T07:32:56.978Z,42.63
2018-04-19T07:33:32.289Z,42.74
2018-04-19T07:34:11.093Z,42.63
2018-04-19T07:34:46.486Z,42.04
2018-04-19T07:35:21.754Z,43.01
2018-04-19T07:35:57.064Z,42.39
2018-04-19T07:36:32.599Z,43.16
2018-04-19T07:37:08.099Z,43.26
2018-04-19T07:37:43.422Z,43.24
2018-04-19T07:38:18.986Z,43.32
2018-04-19T07:38:54.199Z,44.27
2018-04-19T07:39:29.544Z,45.41
2018-04-19T07:40:05.022Z,46.01
2018-04-19T07:40:40.328Z,46.19
2018-04-19T07:41:15.417Z,46.96
2018-04-19T07:41:50.836Z,46.96
2018-04-19T07:42:26.201Z,47.57